createdAt,value
2019-05-15T00:00:40.489Z,8.72
2019-05-15T00:03:09.658Z,8.68
2019-05-15T00:05:39.350Z,8.64
2019-05-15T00:08:09.874Z,8.60
2019-05-15T00:10:39.598Z,8.54
2019-05-15T00:13:09.455Z,8.49
2019-05-15T00:15:40.175Z,8.48
2019-05-15T00:18:09.967Z,8.44
2019-05-15T00:20:39.825Z,8.40
2019-05-15T00:23:08.634Z,8.35
2019-05-15T00:25:39.401Z,8.32
2019-05-15T00:28:09.679Z,8.28
2019-05-15T00:30:39.202Z,8.25
2019-05-15T00:33:09.101Z,8.22
2019-05-15T00:35:39.603Z,8.18
2019-05-15T00:38:09.733Z,8.16
2019-05-15T00:40:39.714Z,8.12
2019-05-15T00:43:09.207Z,8.10
2019-05-15T00:45:38.777Z,8.08
2019-05-15T00:48:08.929Z,8.06
2019-05-15T00:50:39.406Z,8.07
2019-05-15T00:53:29.913Z,8.05
2019-05-15T00:56:03.381Z,8.00
2019-05-15T00:58:32.533Z,8.00
2019-05-15T01:01:08.300Z,7.99
2019-05-15T01:03:39.844Z,7.98
2019-05-15T01:06:08.995Z,7.92
2019-05-15T01:08:40.472Z,7.87
2019-05-15T01:11:13.023Z,7.85
2019-05-15T01:13:49.240Z,7.82
2019-05-15T01:16:18.718Z,7.81
2019-05-15T01:18:54.416Z,7.79
2019-05-15T01:21:28.944Z,7.79
2019-05-15T01:24:08.439Z,7.77
2019-05-15T01:26:41.597Z,7.77
2019-05-15T01:29:18.292Z,7.72
2019-05-15T01:31:53.906Z,7.71
2019-05-15T01:34:23.368Z,7.72
2019-05-15T01:36:59.120Z,7.74
2019-05-15T01:39:32.112Z,7.75
2019-05-15T01:42:08.312Z,7.66
2019-05-15T01:44:38.996Z,7.64
2019-05-15T01:47:13.221Z,7.61
2019-05-15T01:49:49.088Z,7.52
2019-05-15T01:52:18.775Z,7.42
2019-05-15T01:54:49.666Z,7.34
2019-05-15T01:57:22.623Z,7.34
2019-05-15T01:59:58.264Z,7.29
2019-05-15T02:02:33.355Z,7.27
2019-05-15T02:05:09.090Z,7.25
2019-05-15T02:07:42.200Z,7.27
2019-05-15T02:10:18.714Z,7.26
2019-05-15T02:12:52.222Z,7.25
2019-05-15T02:15:21.992Z,7.21
2019-05-15T02:17:52.099Z,7.19
2019-05-15T02:20:28.966Z,7.16
2019-05-15T02:22:59.088Z,7.12
2019-05-15T02:25:28.396Z,7.12
2019-05-15T02:27:58.718Z,7.09
2019-05-15T02:30:34.169Z,7.07
2019-05-15T02:33:01.173Z,7.04
2019-05-15T02:35:33.704Z,7.07
2019-05-15T02:38:02.967Z,7.10
2019-05-15T02:40:35.600Z,7.10
2019-05-15T02:43:14.527Z,7.09
2019-05-15T02:45:45.337Z,7.04
2019-05-15T02:48:20.917Z,6.98
2019-05-15T02:51:10.444Z,6.95
2019-05-15T02:53:50.018Z,6.91
2019-05-15T02:56:38.951Z,6.79
2019-05-15T02:59:19.343Z,6.66
2019-05-15T03:01:53.349Z,6.57
2019-05-15T03:04:41.547Z,6.53
2019-05-15T03:07:19.259Z,6.52
2019-05-15T03:09:59.961Z,6.51
2019-05-15T03:12:29.272Z,6.51
2019-05-15T03:15:10.431Z,6.52
2019-05-15T03:18:00.404Z,6.52
2019-05-15T03:20:34.950Z,6.52
2019-05-15T03:26:08.640Z,6.47
2019-05-15T03:28:39.242Z,6.45
2019-05-15T03:31:25.725Z,6.41
2019-05-15T03:33:44.742Z,6.38
2019-05-15T03:36:13.082Z,6.38
2019-05-15T03:38:40.362Z,6.39
2019-05-15T03:41:10.441Z,6.42
2019-05-15T03:43:39.844Z,6.42
2019-05-15T03:46:09.367Z,6.42
2019-05-15T03:48:40.263Z,6.43
2019-05-15T03:51:09.637Z,6.42
2019-05-15T03:53:40.149Z,6.40
2019-05-15T03:56:10.080Z,6.40
2019-05-15T03:58:40.167Z,6.38
2019-05-15T04:01:27.637Z,6.36
2019-05-15T04:03:40.633Z,6.33
2019-05-15T04:06:10.415Z,6.31
2019-05-15T04:08:39.695Z,6.28
2019-05-15T04:11:09.389Z,6.27
2019-05-15T04:13:39.765Z,6.26
2019-05-15T04:16:13.549Z,6.19
2019-05-15T04:21:51.181Z,6.08
2019-05-15T04:24:44.360Z,6.05
2019-05-15T04:27:10.629Z,6.00
2019-05-15T04:29:40.101Z,5.98
2019-05-15T04:32:10.507Z,5.94
2019-05-15T04:34:40.298Z,5.94
2019-05-15T04:37:09.637Z,5.95
2019-05-15T04:39:40.086Z,5.96
2019-05-15T04:42:22.607Z,5.91
2019-05-15T04:45:19.165Z,5.90
2019-05-15T04:47:40.833Z,5.90
2019-05-15T04:50:10.288Z,5.91
2019-05-15T04:55:56.060Z,5.96
2019-05-15T04:58:25.553Z,5.98
2019-05-15T05:00:59.951Z,6.04
2019-05-15T05:03:29.161Z,6.09
2019-05-15T05:05:59.409Z,6.14
2019-05-15T05:08:29.284Z,6.19
2019-05-15T05:11:06.059Z,6.30
2019-05-15T05:13:44.464Z,6.42
2019-05-15T05:16:19.408Z,6.53
2019-05-15T05:18:49.052Z,6.62
2019-05-15T05:21:18.555Z,6.72
2019-05-15T05:23:48.344Z,6.84
2019-05-15T05:26:25.632Z,6.95
2019-05-15T05:28:55.307Z,7.09
2019-05-15T05:31:24.486Z,7.24
2019-05-15T05:33:53.775Z,7.39
2019-05-15T05:36:22.943Z,7.53
2019-05-15T05:38:52.175Z,7.67
2019-05-15T05:41:21.411Z,7.80
2019-05-15T05:43:50.563Z,7.91
2019-05-15T05:46:19.746Z,8.06
2019-05-15T05:48:49.114Z,8.16
2019-05-15T05:51:21.714Z,8.26
2019-05-15T05:53:51.069Z,8.35
2019-05-15T05:56:20.264Z,8.46
2019-05-15T05:58:49.436Z,8.53
2019-05-15T06:01:18.937Z,8.67
2019-05-15T06:03:49.071Z,8.78
2019-05-15T06:06:18.800Z,8.87
2019-05-15T06:08:48.167Z,8.97
2019-05-15T06:11:18.334Z,9.05
2019-05-15T06:13:52.299Z,9.15
2019-05-15T06:16:19.136Z,9.27
2019-05-15T06:18:49.112Z,9.35
2019-05-15T06:21:18.642Z,9.45
2019-05-15T06:23:54.784Z,9.54
2019-05-15T06:26:30.697Z,9.67
2019-05-15T06:29:00.313Z,9.77
2019-05-15T06:31:29.467Z,9.88
2019-05-15T06:33:58.650Z,9.97
2019-05-15T06:36:28.879Z,10.06
2019-05-15T06:39:00.310Z,10.13
2019-05-15T06:41:29.552Z,10.20
2019-05-15T06:43:59.003Z,10.29
2019-05-15T06:46:28.327Z,10.35
2019-05-15T06:48:58.056Z,10.46
2019-05-15T06:51:28.814Z,10.60
2019-05-15T06:53:58.403Z,10.72
2019-05-15T06:59:08.717Z,10.94
2019-05-15T07:01:48.828Z,11.05
2019-05-15T07:04:18.154Z,11.14
2019-05-15T07:06:58.378Z,11.19
2019-05-15T07:09:31.926Z,11.24
2019-05-15T07:12:18.942Z,11.29
2019-05-15T07:15:04.120Z,11.36
2019-05-15T07:17:48.565Z,11.45
2019-05-15T07:20:30.288Z,11.54
2019-05-15T07:23:18.540Z,11.65
2019-05-15T07:26:00.676Z,11.79
2019-05-15T07:28:40.086Z,11.89
2019-05-15T07:31:11.666Z,12.00
2019-05-15T07:33:43.628Z,12.20
2019-05-15T07:36:19.791Z,12.46
2019-05-15T07:38:54.159Z,12.69
2019-05-15T07:41:35.777Z,12.96
2019-05-15T07:44:18.845Z,13.29
2019-05-15T07:47:05.572Z,13.67
2019-05-15T07:49:35.996Z,14.04
2019-05-15T07:52:05.177Z,14.37
2019-05-15T07:54:34.364Z,14.67
2019-05-15T07:57:05.510Z,14.94
2019-05-15T07:59:34.700Z,15.20
2019-05-15T08:02:03.847Z,15.43
2019-05-15T08:04:33.282Z,15.69
2019-05-15T08:07:02.431Z,15.93
2019-05-15T08:09:31.592Z,16.07
2019-05-15T08:12:03.236Z,16.14
2019-05-15T08:14:31.740Z,16.19
2019-05-15T08:17:00.928Z,16.23
2019-05-15T08:19:30.102Z,16.26
2019-05-15T08:21:59.284Z,16.37
2019-05-15T08:24:29.794Z,16.43
2019-05-15T08:27:01.512Z,16.42
2019-05-15T08:29:30.700Z,16.53
2019-05-15T08:31:59.887Z,16.71
2019-05-15T08:34:29.395Z,16.89
2019-05-15T08:36:59.499Z,17.12
2019-05-15T08:39:28.668Z,17.32
2019-05-15T08:41:58.474Z,17.54
2019-05-15T08:44:29.348Z,17.76
2019-05-15T08:47:00.648Z,17.87
2019-05-15T08:49:30.745Z,17.92
2019-05-15T08:52:00.128Z,17.93
2019-05-15T08:54:29.549Z,17.89
2019-05-15T08:56:59.354Z,17.81
2019-05-15T08:59:29.505Z,17.71
2019-05-15T09:01:58.852Z,17.70
2019-05-15T09:04:34.612Z,17.68
2019-05-15T09:07:01.329Z,17.77
2019-05-15T09:09:29.957Z,17.82
2019-05-15T09:12:00.206Z,17.88
2019-05-15T09:14:29.404Z,17.92
2019-05-15T09:16:58.602Z,17.88
2019-05-15T09:19:28.243Z,17.83
2019-05-15T09:21:59.981Z,17.83
2019-05-15T09:24:29.229Z,17.85
2019-05-15T09:26:59.643Z,17.91
2019-05-15T09:29:29.369Z,18.01
2019-05-15T09:31:58.878Z,18.02
2019-05-15T09:34:45.027Z,18.05
2019-05-15T09:37:00.018Z,18.18
2019-05-15T09:39:29.364Z,18.20
2019-05-15T09:41:58.541Z,18.12
2019-05-15T09:44:28.497Z,18.07
2019-05-15T09:47:00.346Z,18.02
2019-05-15T09:49:31.130Z,18.08
2019-05-15T09:52:00.375Z,18.19
2019-05-15T09:54:29.962Z,18.31
2019-05-15T09:57:00.127Z,18.33
2019-05-15T09:59:49.026Z,18.31
2019-05-15T10:02:18.965Z,18.26
2019-05-15T10:05:05.117Z,18.28
2019-05-15T10:07:19.492Z,18.35
2019-05-15T10:09:52.231Z,18.38
2019-05-15T10:12:19.738Z,18.37
2019-05-15T10:14:49.516Z,18.40
2019-05-15T10:17:18.656Z,18.49
2019-05-15T10:19:48.878Z,18.57
2019-05-15T10:22:18.723Z,18.57
2019-05-15T10:24:50.902Z,18.60
2019-05-15T10:27:18.929Z,18.64
2019-05-15T10:29:48.483Z,18.67
2019-05-15T10:32:19.423Z,18.67
2019-05-15T10:34:47.793Z,18.76
2019-05-15T10:37:18.599Z,18.82
2019-05-15T10:39:52.138Z,18.69
2019-05-15T10:42:19.480Z,18.66
2019-05-15T10:44:48.890Z,18.75
2019-05-15T10:47:18.090Z,18.84
2019-05-15T10:49:48.449Z,18.96
2019-05-15T10:52:18.105Z,19.05
2019-05-15T10:54:47.828Z,19.13
2019-05-15T10:57:18.860Z,19.23
2019-05-15T10:59:47.950Z,19.29
2019-05-15T11:02:19.226Z,19.17
2019-05-15T11:04:48.715Z,19.15
2019-05-15T11:07:19.460Z,19.25
2019-05-15T11:09:49.127Z,19.39
2019-05-15T11:12:19.041Z,19.38
2019-05-15T11:14:48.280Z,19.32
2019-05-15T11:17:19.564Z,19.26
2019-05-15T11:20:09.876Z,19.24
2019-05-15T11:22:42.881Z,19.17
2019-05-15T11:25:10.698Z,19.12
2019-05-15T11:27:39.834Z,19.15
2019-05-15T11:30:10.609Z,19.18
2019-05-15T11:32:39.778Z,19.28
2019-05-15T11:35:10.611Z,19.27
2019-05-15T11:37:45.385Z,19.26
2019-05-15T11:40:13.329Z,19.15
2019-05-15T11:42:48.913Z,19.07
2019-05-15T11:45:18.729Z,19.12
2019-05-15T11:47:49.017Z,19.31
2019-05-15T11:50:20.404Z,19.47
2019-05-15T11:52:49.613Z,19.38
2019-05-15T11:55:22.087Z,19.31
2019-05-15T11:57:55.587Z,19.32
2019-05-15T12:00:27.206Z,19.36
2019-05-15T12:02:58.426Z,19.56
2019-05-15T12:05:29.989Z,19.76
2019-05-15T12:07:59.269Z,19.85
2019-05-15T12:10:29.031Z,19.92
2019-05-15T12:12:58.763Z,19.88
2019-05-15T12:15:28.268Z,19.86
2019-05-15T12:17:59.157Z,19.86
2019-05-15T12:20:28.778Z,19.87
2019-05-15T12:23:01.248Z,19.90
2019-05-15T12:25:33.878Z,19.80
2019-05-15T12:28:03.031Z,19.76
2019-05-15T12:30:32.311Z,19.81
2019-05-15T12:33:03.807Z,19.89
2019-05-15T12:35:33.416Z,19.87
2019-05-15T12:38:03.543Z,20.07
2019-05-15T13:00:44.451Z,20.42
2019-05-15T13:03:12.971Z,20.48
2019-05-15T13:05:42.060Z,20.51
2019-05-15T13:08:12.579Z,20.39
2019-05-15T13:10:41.789Z,20.46
2019-05-15T13:13:13.287Z,20.60
2019-05-15T13:15:42.550Z,20.68
2019-05-15T13:18:14.494Z,20.71
2019-05-15T13:20:42.852Z,20.67
2019-05-15T13:23:12.383Z,20.78
2019-05-15T13:25:41.860Z,20.63
2019-05-15T13:28:12.636Z,20.79
2019-05-15T13:30:41.972Z,20.91
2019-05-15T13:33:11.219Z,21.00
2019-05-15T13:35:40.766Z,21.08
2019-05-15T13:38:10.153Z,21.05
2019-05-15T13:40:42.098Z,21.07
2019-05-15T13:43:10.143Z,21.03
2019-05-15T13:45:38.916Z,20.95
2019-05-15T13:48:08.913Z,20.83
2019-05-15T13:50:40.311Z,20.54
2019-05-15T13:53:11.256Z,20.41
2019-05-15T13:55:42.839Z,20.29
2019-05-15T13:58:11.707Z,20.39
2019-05-15T14:00:40.949Z,20.47
2019-05-15T14:03:10.749Z,20.47
2019-05-15T14:05:39.921Z,20.53
2019-05-15T14:08:10.396Z,20.60
2019-05-15T14:10:58.997Z,20.58
2019-05-15T14:13:30.571Z,20.61
2019-05-15T14:16:01.366Z,20.66
2019-05-15T14:18:29.858Z,20.72
2019-05-15T14:20:59.095Z,20.57
2019-05-15T14:23:29.707Z,20.46
2019-05-15T14:26:12.995Z,20.35
2019-05-15T14:28:29.915Z,20.27
2019-05-15T14:30:59.146Z,20.20
2019-05-15T14:33:29.222Z,20.09
2019-05-15T14:35:59.123Z,19.99
2019-05-15T14:38:29.096Z,19.97
2019-05-15T14:40:59.018Z,20.00
2019-05-15T14:43:29.369Z,20.08
2019-05-15T14:46:00.793Z,20.15
2019-05-15T14:48:32.865Z,20.05
2019-05-15T14:51:02.093Z,20.03
2019-05-15T14:53:31.273Z,20.12
2019-05-15T14:56:03.940Z,20.23
2019-05-15T14:58:38.628Z,20.27
2019-05-15T15:01:12.512Z,20.30
2019-05-15T15:03:38.375Z,20.40
2019-05-15T15:06:08.701Z,20.45
2019-05-15T15:08:38.540Z,20.46
2019-05-15T15:11:08.769Z,20.42
2019-05-15T15:13:38.364Z,19.91
2019-05-15T15:16:08.417Z,19.86
2019-05-15T15:18:38.628Z,19.96
2019-05-15T15:21:08.655Z,20.09
2019-05-15T15:23:38.788Z,20.17
2019-05-15T15:26:08.411Z,20.20
2019-05-15T15:28:39.980Z,20.30
2019-05-15T15:31:09.526Z,20.42
2019-05-15T15:33:39.335Z,20.49
2019-05-15T15:36:08.936Z,20.56
2019-05-15T15:38:43.203Z,20.59
2019-05-15T15:41:08.658Z,20.63
2019-05-15T15:43:38.779Z,20.60
2019-05-15T15:46:08.774Z,20.65
2019-05-15T15:48:39.303Z,20.72
2019-05-15T15:51:09.721Z,20.69
2019-05-15T15:53:39.232Z,20.32
2019-05-15T15:56:10.629Z,20.22
2019-05-15T15:58:39.203Z,20.29
2019-05-15T16:01:10.916Z,20.37
2019-05-15T16:03:41.169Z,20.44
2019-05-15T16:06:13.594Z,20.58
2019-05-15T16:08:54.833Z,20.66
2019-05-15T16:11:14.306Z,20.54
2019-05-15T16:13:46.232Z,20.45
2019-05-15T16:16:14.393Z,20.52
2019-05-15T16:18:43.556Z,20.63
2019-05-15T16:21:12.779Z,20.72
2019-05-15T16:23:42.261Z,20.66
2019-05-15T16:26:11.516Z,20.66
2019-05-15T16:28:40.671Z,20.80
2019-05-15T16:31:09.947Z,20.86
2019-05-15T16:33:39.170Z,20.98
2019-05-15T16:36:09.678Z,21.04
2019-05-15T16:38:39.151Z,20.98
2019-05-15T16:41:09.135Z,20.92
2019-05-15T16:43:38.464Z,20.88
2019-05-15T16:46:09.139Z,20.82
2019-05-15T16:48:39.112Z,20.84
2019-05-15T16:51:11.346Z,20.84
2019-05-15T16:53:44.168Z,20.59
2019-05-15T16:56:15.504Z,20.56
2019-05-15T16:58:44.634Z,20.61
2019-05-15T17:01:19.517Z,20.57
2019-05-15T17:03:52.982Z,20.55
2019-05-15T17:06:22.140Z,20.53
2019-05-15T17:08:51.347Z,20.52
2019-05-15T17:11:20.789Z,20.49
2019-05-15T17:13:50.949Z,20.52
2019-05-15T17:16:20.177Z,20.52
2019-05-15T17:18:49.703Z,20.38
2019-05-15T17:21:20.732Z,20.20
2019-05-15T17:23:50.033Z,19.97
2019-05-15T17:26:19.606Z,19.93
2019-05-15T17:28:48.118Z,19.89
2019-05-15T17:31:18.209Z,19.87
2019-05-15T17:33:48.942Z,19.84
2019-05-15T17:36:18.891Z,19.77
2019-05-15T17:38:48.726Z,19.70
2019-05-15T17:41:18.382Z,19.60
2019-05-15T17:43:48.546Z,19.38
2019-05-15T17:46:17.863Z,19.12
2019-05-15T17:48:54.158Z,18.92
2019-05-15T17:51:18.001Z,18.70
2019-05-15T17:53:48.895Z,18.53
2019-05-15T17:56:18.123Z,18.27
2019-05-15T17:58:48.707Z,18.05
2019-05-15T18:01:21.470Z,17.83
2019-05-15T18:03:51.944Z,17.68
2019-05-15T18:06:21.951Z,17.53
2019-05-15T18:08:51.275Z,17.34
2019-05-15T18:11:20.418Z,17.17
2019-05-15T18:13:49.715Z,16.98
2019-05-15T18:16:18.859Z,16.82
2019-05-15T18:18:48.030Z,16.64
2019-05-15T18:21:22.184Z,16.44
2019-05-15T18:23:51.447Z,16.32
2019-05-15T18:26:20.668Z,16.22
2019-05-15T18:28:49.861Z,16.16
2019-05-15T18:31:19.434Z,16.15
2019-05-15T18:33:53.962Z,16.14
2019-05-15T18:36:19.888Z,16.06
2019-05-15T18:38:49.400Z,15.98
2019-05-15T18:41:20.389Z,15.91
2019-05-15T18:43:49.588Z,15.82
2019-05-15T18:46:18.878Z,15.69
2019-05-15T18:48:48.655Z,15.60
2019-05-15T18:51:17.787Z,15.56
2019-05-15T18:53:48.183Z,15.51
2019-05-15T18:56:18.671Z,15.45
2019-05-15T18:58:48.606Z,15.39
2019-05-15T19:01:17.973Z,15.34
2019-05-15T19:03:47.102Z,15.28
2019-05-15T19:06:18.429Z,15.19
2019-05-15T19:08:47.248Z,15.09
2019-05-15T19:11:18.368Z,15.04
2019-05-15T19:13:48.167Z,15.02
2019-05-15T19:16:17.359Z,14.97
2019-05-15T19:18:47.913Z,14.95
2019-05-15T19:21:17.164Z,14.91
2019-05-15T19:23:47.801Z,14.87
2019-05-15T19:26:18.316Z,14.78
2019-05-15T19:28:48.678Z,14.70
2019-05-15T19:31:26.777Z,14.64
2019-05-15T19:33:49.276Z,14.53
2019-05-15T19:36:19.433Z,14.48
2019-05-15T19:38:49.020Z,14.41
2019-05-15T19:41:18.437Z,14.38
2019-05-15T19:43:48.722Z,14.34
2019-05-15T19:46:18.008Z,14.31
2019-05-15T19:48:48.929Z,14.27
2019-05-15T19:51:18.740Z,14.19
2019-05-15T19:53:48.567Z,14.15
2019-05-15T19:56:18.856Z,14.09
2019-05-15T19:58:49.609Z,14.03
2019-05-15T20:01:19.015Z,13.97
2019-05-15T20:03:52.903Z,13.88
2019-05-15T20:06:27.958Z,13.78
2019-05-15T21:19:19.233Z,12.08
2019-05-15T21:21:54.829Z,12.00
2019-05-15T21:24:28.351Z,11.97
2019-05-15T21:27:00.343Z,11.91
2019-05-15T21:29:29.437Z,11.88
2019-05-15T21:32:01.563Z,11.83
2019-05-15T21:34:37.716Z,11.81
2019-05-15T21:37:08.744Z,11.80
2019-05-15T21:39:42.944Z,11.76
2019-05-15T21:42:12.458Z,11.71
2019-05-15T21:44:42.710Z,11.66
2019-05-15T21:47:11.866Z,11.64
2019-05-15T21:49:41.684Z,11.61
2019-05-15T21:52:11.568Z,11.61
2019-05-15T21:54:40.963Z,11.57
2019-05-15T21:57:29.225Z,11.53
2019-05-15T21:59:43.219Z,11.50
2019-05-15T22:02:12.833Z,11.48
2019-05-15T22:04:54.785Z,11.44
2019-05-15T22:07:17.878Z,11.41
2019-05-15T22:09:48.739Z,11.39
2019-05-15T22:12:21.232Z,11.36
2019-05-15T22:14:57.678Z,11.35
2019-05-15T22:17:33.724Z,11.29
2019-05-15T22:20:03.535Z,11.24
2019-05-15T22:22:36.520Z,11.18
2019-05-15T22:25:11.219Z,11.14
2019-05-15T22:27:40.187Z,11.12
2019-05-15T22:30:09.410Z,11.08
2019-05-15T22:32:41.724Z,11.06
2019-05-15T22:35:14.098Z,11.00
2019-05-15T22:37:43.492Z,10.96
2019-05-15T22:40:12.823Z,10.91
2019-05-15T22:42:42.132Z,10.88
2019-05-15T22:45:11.929Z,10.87
2019-05-15T22:47:49.862Z,10.82
2019-05-15T22:50:19.574Z,10.76
2019-05-15T22:52:59.120Z,10.74
2019-05-15T22:55:29.096Z,10.70
2019-05-15T22:57:59.250Z,10.64
2019-05-15T23:00:33.844Z,10.60
2019-05-15T23:03:03.217Z,10.58
2019-05-15T23:05:35.271Z,10.53
2019-05-15T23:08:13.409Z,10.49
2019-05-15T23:10:45.162Z,10.47
2019-05-15T23:13:14.514Z,10.43
2019-05-15T23:15:43.669Z,10.38
2019-05-15T23:18:18.029Z,10.35
2019-05-15T23:20:54.419Z,10.33
2019-05-15T23:23:38.116Z,10.33
2019-05-15T23:26:07.517Z,10.32
2019-05-15T23:28:38.652Z,10.29
2019-05-15T23:31:12.358Z,10.28
2019-05-15T23:33:48.583Z,10.25
2019-05-15T23:36:31.025Z,10.25
2019-05-15T23:39:18.373Z,10.22
2019-05-15T23:41:58.348Z,10.21
2019-05-15T23:44:38.084Z,10.18
2019-05-15T23:47:07.263Z,10.14
2019-05-15T23:49:41.704Z,10.12
2019-05-15T23:52:24.605Z,10.12
2019-05-15T23:54:58.820Z,10.09
2019-05-15T23:57:28.643Z,10.04
